Terminal Aerodrome Forecast
Issued by NWS

Home | Current Version | Previous Version | Text Only | Print | Product List | Glossary On
Versions: 1 2 3 4 5 6 7 8 9 10 11 12 13 14 15 16 17 18 19 20 21 22 23 24 25
000
FTUS44 KMOB 251135
TAFBFM
TAF
KBFM 251135Z 2512/2612 13013KT P6SM VCSH BKN100
      TEMPO 2518/2521 4SM -TSRA BKN015CB
     FM252100 20015KT 4SM BR OVC015
     FM260000 14008KT 5SM BR BKN025 OVC035
     FM260600 13006KT P6SM OVC015=

USA.gov is the U.S. government's official web portal to all federal, state and local government web resources and services.